Terminal Aerodrome Forecast
Issued by NWS Sterling, VA

Current Version | Previous Version | Graphics & Text | Print | Product List | Glossary On
Versions: 1 2 3 4 5 6 7 8 9 10 11 12 13 14 15 16 17 18 19 20 21 22
000
FTUS41 KLWX 131723
TAFIAD
TAF
KIAD 131723Z 1318/1424 34012KT P6SM BKN140
     FM132300 01007KT P6SM OVC120
     FM140500 VRB03KT P6SM -FZRASNPL OVC080
     FM140900 00000KT 3SM -FZRASNPL OVC045
     FM141500 00000KT 1SM -FZRASNPL OVC003
     FM141700 00000KT 1SM -RA OVC003
     FM142100 00000KT 1SM -RA OVC008=

USA.gov is the U.S. government's official web portal to all federal, state and local government web resources and services.